Time,TemperatureF,DewpointF,PressureIn,WindDirection,WindDirectionDegrees,WindSpeedMPH,WindSpeedGustMPH,Humidity,HourlyPrecipIn,Conditions,Clouds,dailyrainin,SoftwareType,DateUTC
2013-03-18 07:44:00,38.8,38.0,30.06,NW,306,0.0,4.0,95,0.00,,,0.00,weatherlink.com 1.10,2013-03-18 14:44:00,
2013-03-18 07:59:00,38.6,37.0,30.06,NW,306,0.0,0.0,95,0.00,,,0.00,weatherlink.com 1.10,2013-03-18 14:59:00,
2013-03-18 08:14:00,39.9,39.0,30.06,NW,306,0.0,1.0,96,0.00,,,0.00,weatherlink.com 1.10,2013-03-18 15:14:00,
2013-03-18 08:29:00,41.3,40.0,30.06,WNW,293,2.0,3.0,96,0.00,,,0.00,weatherlink.com 1.10,2013-03-18 15:29:00,
2013-03-18 08:44:00,41.8,41.0,30.07,WNW,293,0.0,3.0,95,0.00,,,0.00,weatherlink.com 1.10,2013-03-18 15:44:00,
2013-03-18 08:59:00,43.1,42.0,30.07,WNW,293,0.0,0.0,95,0.00,,,0.00,weatherlink.com 1.10,2013-03-18 15:59:00,
2013-03-18 09:14:00,44.9,44.0,30.07,WNW,293,0.0,0.0,96,0.00,,,0.00,weatherlink.com 1.10,2013-03-18 16:14:00,
2013-03-18 09:29:00,48.8,44.0,30.07,WNW,293,0.0,1.0,84,0.00,,,0.00,weatherlink.com 1.10,2013-03-18 16:29:00,
2013-03-18 09:44:00,48.6,44.0,30.07,WNW,283,0.0,3.0,83,0.00,,,0.00,weatherlink.com 1.10,2013-03-18 16:44:00,
2013-03-18 09:59:00,49.3,45.0,30.07,WNW,283,0.0,1.0,84,0.00,,,0.00,weatherlink.com 1.10,2013-03-18 16:59:00,
2013-03-18 10:15:00,51.1,45.0,30.07,WNW,292,0.0,1.0,79,0.00,,,0.00,weatherlink.com 1.10,2013-03-18 17:15:00,
2013-03-18 10:30:00,53.3,46.0,30.08,East,82,0.0,0.0,75,0.00,,,0.00,weatherlink.com 1.10,2013-03-18 17:30:00,
2013-03-18 10:45:00,55.1,47.0,30.08,South,180,2.0,2.0,73,0.00,,,0.00,weatherlink.com 1.10,2013-03-18 17:45:00,
2013-03-18 11:00:00,55.7,46.0,30.08,West,281,0.0,2.0,71,0.00,,,0.00,weatherlink.com 1.10,2013-03-18 18:00:00,
2013-03-18 11:15:00,57.5,48.0,30.07,SW,232,2.0,4.0,70,0.00,,,0.00,weatherlink.com 1.10,2013-03-18 18:15:00,
2013-03-18 11:30:00,58.5,47.0,30.07,SSE,157,1.0,5.0,66,0.00,,,0.00,weatherlink.com 1.10,2013-03-18 18:30:00,
2013-03-18 11:45:00,60.6,49.0,30.07,SE,144,3.0,4.0,66,0.00,,,0.00,weatherlink.com 1.10,2013-03-18 18:45:00,
2013-03-18 12:00:00,62.6,49.0,30.06,South,170,0.0,2.0,61,0.00,,,0.00,weatherlink.com 1.10,2013-03-18 19:00:00,
2013-03-18 12:15:00,63.2,48.0,30.06,NE,42,0.0,5.0,58,0.00,,,0.00,weatherlink.com 1.10,2013-03-18 19:15:00,
2013-03-18 12:30:00,63.0,49.0,30.06,SSE,161,0.0,4.0,60,0.00,,,0.00,weatherlink.com 1.10,2013-03-18 19:30:00,
2013-03-18 12:45:00,63.8,50.0,30.05,SSW,202,1.0,3.0,61,0.00,,,0.00,weatherlink.com 1.10,2013-03-18 19:45:00,
2013-03-18 13:00:00,64.9,51.0,30.05,SE,142,4.0,5.0,60,0.00,,,0.00,weatherlink.com 1.10,2013-03-18 20:00:00,
2013-03-18 13:15:00,65.3,48.0,30.04,NW,316,0.0,4.0,53,0.00,,,0.00,weatherlink.com 1.10,2013-03-18 20:15:00,
2013-03-18 13:30:00,66.7,49.0,30.04,SE,144,1.0,3.0,53,0.00,,,0.00,weatherlink.com 1.10,2013-03-18 20:30:00,
2013-03-18 13:45:00,67.3,49.0,30.03,West,266,0.0,3.0,52,0.00,,,0.00,weatherlink.com 1.10,2013-03-18 20:45:00,
2013-03-18 14:00:00,66.6,47.0,30.02,SSW,212,0.0,3.0,50,0.00,,,0.00,weatherlink.com 1.10,2013-03-18 21:00:00,
2013-03-18 14:15:00,67.2,49.0,30.01,South,178,0.0,3.0,52,0.00,,,0.00,weatherlink.com 1.10,2013-03-18 21:15:00,
2013-03-18 14:30:00,67.6,50.0,30.00,SSW,213,1.0,5.0,54,0.00,,,0.00,weatherlink.com 1.10,2013-03-18 21:30:00,
2013-03-18 14:45:00,67.3,50.0,30.00,South,172,0.0,3.0,54,0.00,,,0.00,weatherlink.com 1.10,2013-03-18 21:45:00,
2013-03-18 15:00:00,67.3,50.0,30.00,SSW,200,0.0,2.0,55,0.00,,,0.00,weatherlink.com 1.10,2013-03-18 22:00:00,
2013-03-18 16:16:00,62.8,49.0,30.00,WSW,240,0.0,4.0,62,0.00,,,0.00,weatherlink.com 1.10,2013-03-18 23:16:00,
2013-03-18 16:31:00,63.1,46.0,29.99,SW,232,0.0,4.0,55,0.00,,,0.00,weatherlink.com 1.10,2013-03-18 23:31:00,
2013-03-18 17:01:00,63.2,46.0,29.99,SW,221,0.0,2.0,54,0.00,,,0.00,weatherlink.com 1.10,2013-03-19 00:01:00,
2013-03-18 17:16:00,63.7,46.0,29.99,SW,221,1.0,3.0,53,0.00,,,0.00,weatherlink.com 1.10,2013-03-19 00:16:00,
2013-03-18 17:31:00,63.9,48.0,29.98,SW,221,0.0,1.0,56,0.00,,,0.00,weatherlink.com 1.10,2013-03-19 00:31:00,
2013-03-18 17:46:00,63.7,47.0,29.98,South,188,0.0,1.0,55,0.00,,,0.00,weatherlink.com 1.10,2013-03-19 00:46:00,
2013-03-18 18:00:00,63.3,47.0,29.99,SSW,208,2.0,3.0,55,0.00,,,0.00,weatherlink.com 1.10,2013-03-19 01:00:00,
2013-03-18 18:16:00,62.6,48.0,29.99,SW,232,0.0,4.0,59,0.00,,,0.00,weatherlink.com 1.10,2013-03-19 01:16:00,
2013-03-18 18:30:00,61.9,48.0,29.99,SSW,203,0.0,2.0,61,0.00,,,0.00,weatherlink.com 1.10,2013-03-19 01:30:00,
2013-03-18 18:46:00,60.2,49.0,29.99,SW,221,0.0,2.0,66,0.00,,,0.00,weatherlink.com 1.10,2013-03-19 01:46:00,
2013-03-18 19:01:00,58.9,48.0,30.00,SW,226,0.0,3.0,68,0.00,,,0.00,weatherlink.com 1.10,2013-03-19 02:01:00,
2013-03-18 19:16:00,58.1,48.0,30.00,SSW,211,0.0,1.0,70,0.00,,,0.00,weatherlink.com 1.10,2013-03-19 02:16:00,
2013-03-18 19:46:00,55.4,48.0,30.01,SSW,202,0.0,1.0,75,0.00,,,0.00,weatherlink.com 1.10,2013-03-19 02:46:00,
2013-03-18 20:01:00,54.2,47.0,30.02,SSW,202,0.0,3.0,76,0.00,,,0.00,weatherlink.com 1.10,2013-03-19 03:01:00,
2013-03-18 20:16:00,53.3,47.0,30.02,SW,214,0.0,1.0,78,0.00,,,0.00,weatherlink.com 1.10,2013-03-19 03:16:00,
2013-03-18 20:32:00,52.4,46.0,30.03,SE,138,0.0,3.0,79,0.00,,,0.00,weatherlink.com 1.10,2013-03-19 03:32:00,
2013-03-18 20:47:00,51.5,46.0,30.03,SSE,153,1.0,2.0,81,0.00,,,0.00,weatherlink.com 1.10,2013-03-19 03:47:00,
2013-03-18 21:01:00,50.8,46.0,30.04,SE,145,0.0,4.0,82,0.00,,,0.00,weatherlink.com 1.10,2013-03-19 04:01:00,
2013-03-18 21:16:00,50.4,45.0,30.05,SSE,153,0.0,2.0,83,0.00,,,0.00,weatherlink.com 1.10,2013-03-19 04:16:00,
2013-03-18 21:31:00,50.3,46.0,30.05,SE,138,0.0,0.0,84,0.00,,,0.00,weatherlink.com 1.10,2013-03-19 04:31:00,
2013-03-18 22:01:00,49.7,45.0,30.07,East,88,0.0,2.0,85,0.00,,,0.00,weatherlink.com 1.10,2013-03-19 05:01:00,
2013-03-18 22:16:00,49.4,45.0,30.08,East,88,0.0,1.0,85,0.00,,,0.00,weatherlink.com 1.10,2013-03-19 05:16:00,
2013-03-18 22:32:00,49.2,45.0,30.08,East,88,0.0,1.0,86,0.00,,,0.00,weatherlink.com 1.10,2013-03-19 05:32:00,
2013-03-18 22:46:00,49.0,45.0,30.08,East,88,0.0,0.0,87,0.00,,,0.00,weatherlink.com 1.10,2013-03-19 05:46:00,
2013-03-18 23:16:00,47.8,45.0,30.07,East,88,0.0,0.0,88,0.00,,,0.00,weatherlink.com 1.10,2013-03-19 06:16:00,
2013-03-18 23:31:00,47.3,44.0,30.06,East,88,0.0,0.0,89,0.00,,,0.00,weatherlink.com 1.10,2013-03-19 06:31:00,
2013-03-18 23:46:00,47.0,44.0,30.06,East,88,0.0,0.0,90,0.00,,,0.00,weatherlink.com 1.10,2013-03-19 06:46:00,